createdAt,value
2018-09-12T00:00:49.801Z,3.23
2018-09-12T00:03:17.222Z,3.42
2018-09-12T00:05:45.903Z,4.03
2018-09-12T00:08:14.055Z,4.67
2018-09-12T00:10:41.651Z,3.00
2018-09-12T00:15:36.438Z,3.70
2018-09-12T00:18:05.212Z,3.90
2018-09-12T00:20:36.830Z,3.80
2018-09-12T00:23:04.243Z,3.90
2018-09-12T00:28:04.246Z,3.80
2018-09-12T00:30:31.660Z,3.80
2018-09-12T00:32:59.100Z,3.80
2018-09-12T00:35:26.498Z,3.62
2018-09-12T00:37:53.840Z,3.45
2018-09-12T00:40:21.242Z,4.30
2018-09-12T00:42:49.281Z,3.67
2018-09-12T00:45:16.691Z,3.87
2018-09-12T00:47:44.158Z,3.77
2018-09-12T00:50:16.286Z,4.22
2018-09-12T00:52:44.762Z,3.58
2018-09-12T00:55:12.207Z,3.70
2018-09-12T00:57:39.685Z,3.87
2018-09-12T01:00:07.779Z,4.10
2018-09-12T01:02:35.434Z,3.12
2018-09-12T01:05:03.403Z,4.12
2018-09-12T01:07:31.154Z,4.20
2018-09-12T01:09:58.605Z,4.08
2018-09-12T01:12:26.124Z,3.30
2018-09-12T01:14:54.202Z,3.70
2018-09-12T01:17:21.571Z,4.10
2018-09-12T01:19:59.610Z,3.60
2018-09-12T01:22:27.298Z,3.55
2018-09-12T01:24:54.837Z,3.87
2018-09-12T01:27:22.661Z,3.37
2018-09-12T01:29:50.079Z,3.50
2018-09-12T01:32:17.627Z,3.62
2018-09-12T01:34:45.265Z,3.10
2018-09-12T01:37:12.693Z,3.92
2018-09-12T01:42:11.025Z,4.00
2018-09-12T01:44:38.500Z,3.90
2018-09-12T01:47:07.235Z,3.13
2018-09-12T01:49:35.174Z,3.70
2018-09-12T01:52:03.212Z,4.20
2018-09-12T01:54:30.603Z,4.05
2018-09-12T01:56:58.426Z,3.10
2018-09-12T01:59:25.812Z,3.70
2018-09-12T02:01:54.141Z,4.05
2018-09-12T02:04:22.419Z,3.75
2018-09-12T02:06:50.730Z,3.33
2018-09-12T02:09:19.770Z,3.12
2018-09-12T02:11:47.729Z,3.72
2018-09-12T02:14:15.205Z,3.20
2018-09-12T02:16:42.583Z,3.95
2018-09-12T02:19:10.083Z,3.87
2018-09-12T02:21:38.180Z,3.50
2018-09-12T02:24:10.032Z,3.35
2018-09-12T02:26:38.387Z,3.90
2018-09-12T02:29:06.112Z,3.95
2018-09-12T02:31:34.333Z,3.47
2018-09-12T02:34:01.762Z,3.42
2018-09-12T02:36:29.933Z,3.87
2018-09-12T02:38:59.230Z,4.15
2018-09-12T02:41:31.760Z,4.05
2018-09-12T02:43:59.207Z,3.92
2018-09-12T02:46:30.987Z,3.98
2018-09-12T02:48:59.352Z,4.40
2018-09-12T02:51:27.934Z,4.10
2018-09-12T02:53:55.327Z,3.72
2018-09-12T02:56:22.778Z,3.70
2018-09-12T02:58:50.185Z,3.35
2018-09-12T03:01:19.046Z,4.00
2018-09-12T03:03:46.962Z,3.47
2018-09-12T03:06:14.842Z,3.80
2018-09-12T03:08:43.915Z,3.65
2018-09-12T03:11:11.973Z,3.67
2018-09-12T03:13:39.389Z,3.90
2018-09-12T03:16:08.914Z,3.45
2018-09-12T03:18:37.424Z,4.22
2018-09-12T03:21:05.235Z,3.90
2018-09-12T03:23:33.007Z,3.83
2018-09-12T03:26:00.938Z,3.65
2018-09-12T03:28:29.676Z,4.40
2018-09-12T03:30:57.426Z,3.95
2018-09-12T03:33:24.838Z,3.75
2018-09-12T03:35:52.232Z,3.90
2018-09-12T03:38:19.716Z,3.87
2018-09-12T03:40:47.617Z,3.65
2018-09-12T03:43:15.776Z,4.20
2018-09-12T03:45:44.103Z,4.42
2018-09-12T03:48:11.620Z,4.28
2018-09-12T03:50:40.097Z,4.40
2018-09-12T03:53:07.466Z,4.83
2018-09-12T03:55:35.519Z,4.20
2018-09-12T03:58:02.839Z,4.05
2018-09-12T04:00:30.249Z,4.03
2018-09-12T04:02:57.811Z,4.20
2018-09-12T04:05:29.296Z,4.15
2018-09-12T04:08:01.589Z,4.50
2018-09-12T04:10:29.018Z,4.33
2018-09-12T04:12:56.552Z,4.17
2018-09-12T04:15:24.129Z,4.17
2018-09-12T04:17:51.455Z,5.20
2018-09-12T04:20:19.881Z,4.55
2018-09-12T04:22:47.321Z,4.10
2018-09-12T04:25:15.432Z,4.20
2018-09-12T04:30:14.278Z,4.55
2018-09-12T04:32:42.429Z,4.92
2018-09-12T04:35:09.759Z,4.25
2018-09-12T04:37:37.122Z,4.33
2018-09-12T04:40:04.538Z,4.95
2018-09-12T04:42:31.956Z,4.85
2018-09-12T04:44:59.458Z,5.08
2018-09-12T04:47:26.871Z,4.60
2018-09-12T04:49:54.429Z,4.60
2018-09-12T04:52:22.102Z,4.78
2018-09-12T04:54:50.067Z,4.35
2018-09-12T04:57:21.799Z,5.00
2018-09-12T04:59:49.609Z,4.12
2018-09-12T05:02:16.827Z,5.03
2018-09-12T05:04:44.242Z,4.72
2018-09-12T05:07:11.780Z,4.92
2018-09-12T05:09:39.171Z,4.95
2018-09-12T05:12:06.586Z,4.55
2018-09-12T05:14:33.946Z,4.20
2018-09-12T05:17:01.252Z,4.90
2018-09-12T05:19:28.595Z,4.42
2018-09-12T05:21:55.983Z,4.37
2018-09-12T05:24:23.393Z,4.47
2018-09-12T05:26:50.702Z,4.47
2018-09-12T05:29:18.069Z,5.05
2018-09-12T05:31:45.759Z,4.72
2018-09-12T05:34:13.415Z,4.25
2018-09-12T05:36:40.790Z,4.45
2018-09-12T05:39:08.751Z,3.90
2018-09-12T05:41:36.043Z,5.00
2018-09-12T05:44:03.364Z,5.20
2018-09-12T05:46:30.669Z,3.75
2018-09-12T05:48:57.959Z,4.42
2018-09-12T05:51:25.238Z,4.67
2018-09-12T05:53:52.583Z,4.92
2018-09-12T05:56:19.868Z,4.45
2018-09-12T05:58:47.230Z,4.50
2018-09-12T06:01:14.511Z,4.62
2018-09-12T06:03:42.410Z,5.75
2018-09-12T06:06:09.839Z,6.17
2018-09-12T06:08:37.192Z,4.67
2018-09-12T06:11:04.502Z,4.10
2018-09-12T06:13:31.775Z,4.92
2018-09-12T06:15:59.072Z,3.95
2018-09-12T06:18:26.502Z,5.45
2018-09-12T06:20:53.840Z,4.20
2018-09-12T06:23:21.273Z,4.90
2018-09-12T06:25:48.653Z,4.17
2018-09-12T06:28:15.981Z,5.80
2018-09-12T06:30:44.119Z,5.30
2018-09-12T06:33:11.374Z,4.42
2018-09-12T06:35:38.745Z,4.85
2018-09-12T06:38:06.100Z,4.53
2018-09-12T06:40:33.704Z,5.37
2018-09-12T06:43:01.023Z,4.70
2018-09-12T06:45:28.374Z,4.80
2018-09-12T06:47:55.707Z,5.70
2018-09-12T06:50:23.001Z,5.47
2018-09-12T06:52:50.417Z,5.37
2018-09-12T06:55:17.734Z,5.00
2018-09-12T06:57:45.066Z,5.20
2018-09-12T07:00:12.373Z,5.07
2018-09-12T07:02:39.731Z,5.50
2018-09-12T07:05:07.059Z,5.93
2018-09-12T07:07:34.744Z,5.97
2018-09-12T07:10:02.699Z,5.47
2018-09-12T07:12:30.208Z,5.60
2018-09-12T07:14:57.522Z,6.67
2018-09-12T07:17:24.797Z,5.47
2018-09-12T07:19:52.078Z,6.07
2018-09-12T07:22:19.791Z,6.30
2018-09-12T07:24:47.197Z,6.13
2018-09-12T07:27:14.411Z,6.00
2018-09-12T07:29:41.704Z,6.53
2018-09-12T07:32:09.013Z,7.40
2018-09-12T07:34:36.615Z,6.40
2018-09-12T07:37:03.914Z,6.73
2018-09-12T07:39:31.222Z,6.10
2018-09-12T07:41:58.540Z,6.80
2018-09-12T07:44:25.877Z,6.40
2018-09-12T07:46:53.138Z,6.80
2018-09-12T07:49:20.439Z,6.90
2018-09-12T07:51:47.734Z,6.30
2018-09-12T07:54:15.198Z,7.43
2018-09-12T07:56:42.462Z,5.77
2018-09-12T07:59:09.740Z,6.90
2018-09-12T08:01:37.230Z,7.90
2018-09-12T08:04:04.766Z,6.50
2018-09-12T08:06:32.049Z,7.13
2018-09-12T08:08:59.371Z,8.80
2018-09-12T08:11:26.658Z,7.77
2018-09-12T08:13:54.017Z,7.27
2018-09-12T08:16:21.290Z,7.80
2018-09-12T08:18:48.585Z,8.30
2018-09-12T08:21:15.887Z,6.73
2018-09-12T08:23:43.135Z,7.10
2018-09-12T08:26:10.496Z,7.23
2018-09-12T08:28:37.842Z,9.53
2018-09-12T08:31:05.182Z,8.67
2018-09-12T08:33:32.586Z,9.00
2018-09-12T08:36:00.230Z,9.17
2018-09-12T08:38:27.505Z,9.13
2018-09-12T08:40:54.798Z,10.13
2018-09-12T08:43:22.110Z,10.27
2018-09-12T08:45:49.412Z,10.77
2018-09-12T08:48:16.707Z,10.23
2018-09-12T08:50:46.282Z,9.83
2018-09-12T08:53:13.570Z,8.40
2018-09-12T08:55:41.531Z,9.33
2018-09-12T08:58:08.870Z,7.90
2018-09-12T09:00:36.380Z,7.60
2018-09-12T09:03:05.213Z,7.60
2018-09-12T09:05:32.563Z,8.03
2018-09-12T09:07:59.918Z,7.73
2018-09-12T09:10:27.257Z,7.80
2018-09-12T09:12:55.270Z,7.90
2018-09-12T09:15:22.541Z,7.63
2018-09-12T09:17:49.837Z,8.93
2018-09-12T09:20:17.239Z,8.60
2018-09-12T09:22:44.945Z,9.20
2018-09-12T09:25:12.499Z,7.50
2018-09-12T09:27:39.785Z,9.37
2018-09-12T09:30:07.664Z,8.20
2018-09-12T09:32:34.936Z,9.60
2018-09-12T09:35:03.166Z,9.23
2018-09-12T09:37:30.423Z,7.67
2018-09-12T09:39:57.797Z,9.30
2018-09-12T09:42:25.191Z,8.43
2018-09-12T09:44:52.501Z,8.70
2018-09-12T09:47:19.809Z,8.33
2018-09-12T09:49:48.384Z,7.90
2018-09-12T09:52:15.623Z,7.67
2018-09-12T09:54:43.011Z,7.30
2018-09-12T09:57:10.187Z,7.50
2018-09-12T09:59:38.249Z,7.60
2018-09-12T10:03:09.645Z,6.90
2018-09-12T10:05:42.292Z,6.43
2018-09-12T10:08:29.240Z,7.27
2018-09-12T10:10:56.904Z,6.63
2018-09-12T10:13:24.142Z,5.70
2018-09-12T10:15:51.405Z,6.00
2018-09-12T10:18:18.697Z,7.67
2018-09-12T10:20:46.023Z,6.40
2018-09-12T10:23:13.406Z,6.03
2018-09-12T10:25:40.711Z,6.23
2018-09-12T10:28:07.946Z,6.30
2018-09-12T10:30:35.867Z,8.03
2018-09-12T10:33:03.149Z,7.97
2018-09-12T10:35:30.463Z,6.87
2018-09-12T10:37:57.781Z,6.50
2018-09-12T10:40:25.042Z,7.40
2018-09-12T10:42:52.334Z,6.50
2018-09-12T10:45:19.651Z,7.07
2018-09-12T10:47:46.943Z,7.27
2018-09-12T10:50:14.194Z,7.60
2018-09-12T10:52:41.563Z,7.57
2018-09-12T10:55:08.852Z,7.80
2018-09-12T10:57:36.151Z,7.90
2018-09-12T11:00:03.471Z,7.60
2018-09-12T11:02:30.766Z,8.93
2018-09-12T11:04:58.182Z,7.80
2018-09-12T11:07:25.474Z,7.37
2018-09-12T11:09:53.061Z,8.20
2018-09-12T11:12:20.383Z,8.70
2018-09-12T11:14:48.403Z,9.03
2018-09-12T11:17:15.723Z,8.40
2018-09-12T11:19:43.115Z,8.83
2018-09-12T11:22:10.414Z,8.17
2018-09-12T11:24:37.674Z,9.07
2018-09-12T11:27:04.945Z,8.00
2018-09-12T11:29:32.230Z,7.23
2018-09-12T11:31:59.574Z,7.70
2018-09-12T11:34:26.893Z,7.20
2018-09-12T11:36:54.551Z,6.47
2018-09-12T11:39:21.827Z,7.13
2018-09-12T11:41:49.179Z,8.27
2018-09-12T11:44:16.461Z,8.63
2018-09-12T11:46:43.730Z,8.33
2018-09-12T11:49:11.068Z,8.83
2018-09-12T11:51:38.346Z,9.17
2018-09-12T11:54:05.714Z,7.50
2018-09-12T11:56:32.973Z,7.40
2018-09-12T11:59:00.296Z,6.23
2018-09-12T12:01:27.578Z,5.33
2018-09-12T12:03:54.893Z,5.87
2018-09-12T12:06:22.237Z,5.73
2018-09-12T12:08:49.581Z,5.90
2018-09-12T12:11:16.873Z,5.63
2018-09-12T12:13:44.175Z,6.00
2018-09-12T12:16:11.482Z,6.53
2018-09-12T12:18:38.783Z,5.63
2018-09-12T12:21:06.077Z,5.47
2018-09-12T12:23:33.381Z,5.60
2018-09-12T12:26:00.702Z,4.30
2018-09-12T12:28:28.004Z,4.80
2018-09-12T12:30:55.614Z,5.23
2018-09-12T12:33:22.870Z,5.03
2018-09-12T12:35:50.142Z,6.33
2018-09-12T12:38:17.471Z,4.33
2018-09-12T12:40:44.761Z,5.00
2018-09-12T12:43:12.029Z,4.40
2018-09-12T12:45:39.418Z,4.23
2018-09-12T12:48:06.734Z,4.90
2018-09-12T12:50:34.063Z,4.57
2018-09-12T12:53:01.660Z,4.27
2018-09-12T12:55:28.970Z,4.00
2018-09-12T12:57:56.266Z,4.67
2018-09-12T13:00:23.877Z,4.70
2018-09-12T13:02:51.141Z,4.37
2018-09-12T13:05:18.543Z,4.30
2018-09-12T13:07:45.870Z,5.30
2018-09-12T13:10:13.143Z,4.40
2018-09-12T13:12:40.446Z,4.67
2018-09-12T13:15:07.760Z,4.10
2018-09-12T13:17:35.154Z,3.37
2018-09-12T13:20:02.657Z,4.33
2018-09-12T13:22:30.110Z,4.23
2018-09-12T13:24:57.379Z,3.70
2018-09-12T13:27:25.253Z,2.80
2018-09-12T13:29:52.439Z,3.87
2018-09-12T13:32:19.772Z,3.57
2018-09-12T13:34:47.183Z,4.40
2018-09-12T13:37:14.495Z,3.93
2018-09-12T13:39:41.815Z,3.60
2018-09-12T13:42:09.104Z,3.43
2018-09-12T13:44:36.574Z,3.27
2018-09-12T13:47:04.111Z,3.90
2018-09-12T13:49:31.430Z,2.90
2018-09-12T13:51:58.766Z,3.47
2018-09-12T13:54:26.070Z,3.07
2018-09-12T13:56:53.421Z,2.73
2018-09-12T13:59:20.725Z,3.00
2018-09-12T14:01:48.094Z,3.10
2018-09-12T14:04:15.483Z,3.43
2018-09-12T14:06:42.790Z,3.63
2018-09-12T14:09:11.006Z,4.13
2018-09-12T14:11:38.423Z,3.93
2018-09-12T14:14:06.914Z,4.10
2018-09-12T14:16:34.274Z,3.67
2018-09-12T14:19:01.593Z,4.23
2018-09-12T14:21:28.982Z,4.47
2018-09-12T14:23:56.997Z,4.20
2018-09-12T14:26:24.356Z,4.10
2018-09-12T14:28:51.662Z,4.70
2018-09-12T14:31:19.415Z,4.47
2018-09-12T14:33:46.817Z,4.40
2018-09-12T14:36:14.126Z,4.80
2018-09-12T14:38:41.436Z,4.53
2018-09-12T14:41:09.145Z,5.00
2018-09-12T14:43:36.426Z,4.87
2018-09-12T14:46:03.854Z,3.83
2018-09-12T14:48:31.167Z,4.25
2018-09-12T14:50:59.270Z,4.43
2018-09-12T14:53:31.616Z,4.87
2018-09-12T14:55:59.024Z,4.60
2018-09-12T14:58:26.317Z,4.73
2018-09-12T15:00:54.866Z,4.20
2018-09-12T15:03:22.583Z,5.62
2018-09-12T15:05:50.203Z,5.12
2018-09-12T15:08:17.627Z,4.67
2018-09-12T15:10:45.080Z,4.87
2018-09-12T15:13:13.079Z,5.60
2018-09-12T15:15:40.471Z,5.10
2018-09-12T15:18:07.859Z,4.35
2018-09-12T15:20:35.135Z,4.12
2018-09-12T15:23:02.485Z,6.05
2018-09-12T15:25:30.457Z,4.30
2018-09-12T15:27:57.832Z,4.70
2018-09-12T15:30:25.166Z,3.90
2018-09-12T15:32:52.482Z,5.30
2018-09-12T15:35:20.015Z,4.25
2018-09-12T15:37:47.434Z,4.20
2018-09-12T15:40:15.226Z,3.75
2018-09-12T15:42:42.566Z,4.20
2018-09-12T15:45:09.888Z,2.80
2018-09-12T15:47:37.248Z,3.80
2018-09-12T15:50:04.558Z,4.20
2018-09-12T15:52:31.996Z,3.22
2018-09-12T15:54:59.370Z,3.58
2018-09-12T15:57:26.966Z,3.40
2018-09-12T15:59:54.480Z,3.40
2018-09-12T16:02:21.776Z,4.20
2018-09-12T16:04:49.088Z,3.58
2018-09-12T16:07:16.880Z,4.22
2018-09-12T16:09:44.199Z,4.30
2018-09-12T16:12:11.521Z,3.62
2018-09-12T16:14:38.826Z,3.60
2018-09-12T16:17:06.174Z,3.75
2018-09-12T16:19:33.592Z,3.02
2018-09-12T16:22:00.945Z,3.77
2018-09-12T16:24:28.295Z,3.55
2018-09-12T16:26:55.614Z,4.20
2018-09-12T16:29:23.007Z,4.20
2018-09-12T16:31:50.319Z,4.47
2018-09-12T16:34:18.410Z,4.67
2018-09-12T16:36:45.824Z,4.40
2018-09-12T16:39:13.629Z,5.35
2018-09-12T16:41:41.248Z,4.83
2018-09-12T16:44:12.798Z,4.30
2018-09-12T16:46:41.060Z,4.55
2018-09-12T16:49:08.446Z,5.53
2018-09-12T16:51:36.244Z,4.75
2018-09-12T16:54:03.536Z,5.15
2018-09-12T16:56:31.415Z,6.67
2018-09-12T16:58:59.494Z,5.00
2018-09-12T17:01:27.020Z,5.55
2018-09-12T17:03:54.414Z,5.35
2018-09-12T17:06:22.413Z,5.83
2018-09-12T17:08:49.941Z,6.33
2018-09-12T17:11:17.272Z,5.70
2018-09-12T17:13:44.603Z,5.70
2018-09-12T17:16:12.264Z,6.25
2018-09-12T17:18:39.586Z,5.65
2018-09-12T17:21:07.944Z,5.20
2018-09-12T17:23:35.973Z,5.30
2018-09-12T17:26:03.419Z,5.00
2018-09-12T17:28:30.804Z,6.08
2018-09-12T17:30:58.197Z,5.28
2018-09-12T17:33:25.567Z,6.65
2018-09-12T17:35:53.538Z,5.00
2018-09-12T17:38:20.956Z,6.35
2018-09-12T17:40:48.335Z,5.22
2018-09-12T17:43:15.825Z,5.05
2018-09-12T17:45:43.205Z,5.35
2018-09-12T17:48:10.643Z,5.20
2018-09-12T17:50:38.063Z,5.15
2018-09-12T17:53:05.523Z,5.83
2018-09-12T17:55:32.942Z,4.70
2018-09-12T17:58:00.389Z,5.95
2018-09-12T18:00:27.928Z,4.90
2018-09-12T18:05:28.457Z,5.25
2018-09-12T18:07:55.894Z,5.60
2018-09-12T18:10:23.315Z,5.62
2018-09-12T18:12:51.299Z,5.15
2018-09-12T18:15:18.793Z,5.10
2018-09-12T18:17:46.359Z,5.67
2018-09-12T18:20:13.957Z,5.33
2018-09-12T18:22:46.811Z,5.72
2018-09-12T18:25:14.212Z,5.58
2018-09-12T18:27:42.546Z,5.42
2018-09-12T18:30:10.473Z,8.10
2018-09-12T18:32:37.844Z,5.08
2018-09-12T18:35:05.278Z,5.65
2018-09-12T18:37:32.640Z,6.42
2018-09-12T18:40:00.002Z,6.45
2018-09-12T18:42:28.298Z,5.87
2018-09-12T18:44:56.215Z,6.58
2018-09-12T18:47:23.986Z,6.25
2018-09-12T18:49:56.237Z,5.72
2018-09-12T18:52:25.583Z,5.53
2018-09-12T18:54:52.997Z,7.47
2018-09-12T18:57:21.373Z,7.20
2018-09-12T18:59:48.769Z,6.78
2018-09-12T19:02:16.577Z,6.80
2018-09-12T19:04:44.266Z,7.30
2018-09-12T19:07:16.463Z,7.25
2018-09-12T19:09:43.937Z,7.85
2018-09-12T19:12:12.546Z,6.42
2018-09-12T19:14:39.931Z,7.17
2018-09-12T19:17:07.606Z,6.47
2018-09-12T19:19:35.343Z,7.83
2018-09-12T19:22:06.534Z,6.97
2018-09-12T19:24:33.920Z,7.05
2018-09-12T19:27:01.403Z,8.10
2018-09-12T19:29:28.851Z,7.72
2018-09-12T19:31:56.747Z,7.72
2018-09-12T19:34:24.917Z,7.60
2018-09-12T19:36:52.412Z,7.55
2018-09-12T19:39:19.847Z,6.60
2018-09-12T19:41:47.415Z,7.55
2018-09-12T19:44:14.867Z,8.33
2018-09-12T19:46:42.303Z,7.70
2018-09-12T19:49:09.673Z,7.25
2018-09-12T19:51:37.107Z,8.18
2018-09-12T19:54:08.563Z,7.25
2018-09-12T19:56:35.992Z,7.35
2018-09-12T19:59:03.528Z,8.15
2018-09-12T20:01:31.771Z,7.80
2018-09-12T20:03:59.543Z,8.20
2018-09-12T20:06:27.206Z,7.55
2018-09-12T20:08:55.281Z,7.60
2018-09-12T20:11:23.507Z,8.83
2018-09-12T20:13:51.530Z,8.65
2018-09-12T20:16:19.031Z,8.50
2018-09-12T20:18:46.610Z,8.25
2018-09-12T20:21:13.995Z,8.33
2018-09-12T20:23:42.369Z,8.78
2018-09-12T20:26:14.463Z,8.20
2018-09-12T20:28:43.390Z,9.83
2018-09-12T20:31:11.749Z,8.65
2018-09-12T20:33:39.336Z,8.18
2018-09-12T20:36:07.379Z,8.78
2018-09-12T20:38:34.888Z,8.73
2018-09-12T20:41:02.287Z,8.85
2018-09-12T20:43:29.727Z,9.10
2018-09-12T20:45:57.578Z,9.18
2018-09-12T20:48:24.995Z,8.33
2018-09-12T20:50:52.446Z,8.55
2018-09-12T20:53:24.396Z,8.95
2018-09-12T20:55:52.451Z,8.35
2018-09-12T20:58:19.954Z,7.95
2018-09-12T21:00:47.481Z,7.90
2018-09-12T21:03:15.079Z,7.72
2018-09-12T21:05:42.540Z,8.33
2018-09-12T21:08:10.867Z,7.37
2018-09-12T21:10:38.406Z,6.80
2018-09-12T21:13:10.186Z,5.80
2018-09-12T21:15:37.645Z,5.03
2018-09-12T21:18:05.745Z,5.97
2018-09-12T21:20:33.090Z,5.22
2018-09-12T21:23:00.520Z,5.17
2018-09-12T21:25:27.975Z,4.65
2018-09-12T21:27:55.316Z,4.25
2018-09-12T21:30:22.713Z,4.55
2018-09-12T21:32:50.118Z,4.92
2018-09-12T21:35:17.637Z,4.70
2018-09-12T21:37:45.107Z,4.60
2018-09-12T21:40:12.554Z,4.00
2018-09-12T21:42:39.886Z,3.12
2018-09-12T21:45:07.236Z,3.12
2018-09-12T21:47:34.620Z,2.90
2018-09-12T21:50:02.325Z,2.50
2018-09-12T21:52:29.765Z,2.45
2018-09-12T21:54:57.270Z,2.47
2018-09-12T21:57:25.457Z,2.60
2018-09-12T21:59:52.906Z,2.10
2018-09-12T22:02:20.262Z,2.75
2018-09-12T22:04:48.248Z,2.20
2018-09-12T22:07:16.676Z,2.37
2018-09-12T22:09:44.209Z,2.00
2018-09-12T22:12:11.685Z,2.35
2018-09-12T22:14:39.051Z,2.05
2018-09-12T22:17:06.483Z,2.20
2018-09-12T22:19:34.915Z,1.75
2018-09-12T22:22:02.288Z,2.47
2018-09-12T22:24:29.835Z,2.22
2018-09-12T22:26:57.173Z,2.40
2018-09-12T22:29:24.775Z,2.20
2018-09-12T22:31:52.254Z,1.85
2018-09-12T22:34:20.511Z,2.10
2018-09-12T22:36:48.737Z,2.30
2018-09-12T22:39:16.110Z,2.50
2018-09-12T22:41:43.568Z,2.27
2018-09-12T22:44:11.037Z,2.10
2018-09-12T22:46:40.030Z,2.80
2018-09-12T22:49:07.557Z,2.02
2018-09-12T22:51:34.953Z,2.25
2018-09-12T22:54:02.413Z,2.35
2018-09-12T22:56:30.683Z,2.27
2018-09-12T22:58:58.626Z,2.37
2018-09-12T23:01:26.081Z,2.00
2018-09-12T23:03:53.467Z,2.55
2018-09-12T23:06:20.952Z,2.40
2018-09-12T23:08:52.425Z,2.60
2018-09-12T23:11:24.642Z,2.30
2018-09-12T23:13:52.248Z,2.37
2018-09-12T23:16:19.659Z,2.15
2018-09-12T23:18:51.293Z,2.30
2018-09-12T23:21:18.742Z,2.30
2018-09-12T23:23:46.627Z,1.87
2018-09-12T23:26:14.219Z,2.05
2018-09-12T23:28:41.576Z,2.00
2018-09-12T23:31:09.102Z,2.30
2018-09-12T23:33:37.234Z,2.30
2018-09-12T23:36:04.598Z,2.15
2018-09-12T23:38:32.060Z,2.15
2018-09-12T23:41:04.101Z,1.98
2018-09-12T23:43:35.622Z,2.12
2018-09-12T23:46:03.756Z,2.12
2018-09-12T23:48:31.208Z,2.25
2018-09-12T23:50:58.767Z,2.70
2018-09-12T23:53:26.163Z,2.37
2018-09-12T23:55:53.692Z,1.98
2018-09-12T23:58:21.707Z,2.42
